createdAt,value
2019-01-23T00:01:02.011Z,6.47
2019-01-23T00:03:31.390Z,8.17
2019-01-23T00:06:00.894Z,7.47
2019-01-23T00:08:30.233Z,7.35
2019-01-23T00:10:59.574Z,11.60
2019-01-23T00:13:28.940Z,9.87
2019-01-23T00:15:58.353Z,7.27
2019-01-23T00:18:27.723Z,10.80
2019-01-23T00:20:57.062Z,16.47
2019-01-23T00:23:26.450Z,5.12
2019-01-23T00:25:55.807Z,10.78
2019-01-23T00:28:25.163Z,7.05
2019-01-23T00:30:54.512Z,8.83
2019-01-23T00:33:23.875Z,7.97
2019-01-23T00:35:53.275Z,5.67
2019-01-23T00:38:22.705Z,9.13
2019-01-23T00:40:52.069Z,5.42
2019-01-23T00:43:21.440Z,9.03
2019-01-23T00:45:50.792Z,6.35
2019-01-23T00:48:20.174Z,5.78
2019-01-23T00:50:49.508Z,3.13
2019-01-23T00:53:18.963Z,5.30
2019-01-23T00:55:48.330Z,5.87
2019-01-23T00:58:17.688Z,8.20
2019-01-23T01:00:47.045Z,8.67
2019-01-23T01:03:16.424Z,10.38
2019-01-23T01:05:45.926Z,7.30
2019-01-23T01:08:15.350Z,4.60
2019-01-23T01:10:44.703Z,3.37
2019-01-23T01:13:14.158Z,8.80
2019-01-23T01:15:43.617Z,4.40
2019-01-23T01:18:13.020Z,9.40
2019-01-23T01:20:42.367Z,5.05
2019-01-23T01:23:11.754Z,7.80
2019-01-23T01:25:41.089Z,7.57
2019-01-23T01:28:10.460Z,6.67
2019-01-23T01:30:40.728Z,5.60
2019-01-23T01:33:10.123Z,11.67
2019-01-23T01:35:39.468Z,5.58
2019-01-23T01:38:08.848Z,8.75
2019-01-23T01:40:38.231Z,4.67
2019-01-23T01:43:07.607Z,6.58
2019-01-23T01:45:36.974Z,6.43
2019-01-23T01:48:06.351Z,7.05
2019-01-23T01:50:35.704Z,6.50
2019-01-23T01:53:05.041Z,6.17
2019-01-23T01:55:34.431Z,5.77
2019-01-23T01:58:04.009Z,4.97
2019-01-23T02:00:33.371Z,7.20
2019-01-23T02:03:04.545Z,10.58
2019-01-23T02:05:33.979Z,6.03
2019-01-23T02:08:03.344Z,7.65
2019-01-23T02:10:32.731Z,5.28
2019-01-23T02:13:17.413Z,6.03
2019-01-23T02:15:46.776Z,6.00
2019-01-23T02:18:16.121Z,5.10
2019-01-23T02:20:45.480Z,6.63
2019-01-23T02:23:14.804Z,6.22
2019-01-23T02:25:44.167Z,4.58
2019-01-23T02:28:14.554Z,7.92
2019-01-23T02:30:45.132Z,5.83
2019-01-23T02:33:14.540Z,8.20
2019-01-23T02:35:43.936Z,6.62
2019-01-23T02:38:13.283Z,10.73
2019-01-23T02:40:42.687Z,5.60
2019-01-23T02:43:12.088Z,11.23
2019-01-23T02:45:41.462Z,9.30
2019-01-23T02:48:10.853Z,11.28
2019-01-23T02:50:40.224Z,6.20
2019-01-23T02:53:09.579Z,8.58
2019-01-23T02:55:38.975Z,7.97
2019-01-23T02:58:08.342Z,7.25
2019-01-23T03:00:37.711Z,5.58
2019-01-23T03:03:07.428Z,6.00
2019-01-23T03:05:36.791Z,9.27
2019-01-23T03:08:07.264Z,7.33
2019-01-23T03:10:57.027Z,9.10
2019-01-23T03:13:26.415Z,7.00
2019-01-23T03:15:55.787Z,12.10
2019-01-23T03:18:25.121Z,6.58
2019-01-23T03:20:55.583Z,8.97
2019-01-23T03:23:24.920Z,6.67
2019-01-23T03:25:54.318Z,9.15
2019-01-23T03:28:23.760Z,14.50
2019-01-23T03:30:53.151Z,7.93
2019-01-23T03:33:22.537Z,5.67
2019-01-23T03:35:51.903Z,8.28
2019-01-23T03:38:21.285Z,7.08
2019-01-23T03:40:50.676Z,4.80
2019-01-23T03:43:23.586Z,8.35
2019-01-23T03:45:52.934Z,13.10
2019-01-23T03:48:24.620Z,7.67
2019-01-23T03:50:53.977Z,3.90
2019-01-23T03:53:23.322Z,8.65
2019-01-23T03:55:52.708Z,6.70
2019-01-23T03:58:22.053Z,7.62
2019-01-23T04:00:51.405Z,11.68
2019-01-23T04:03:20.786Z,7.12
2019-01-23T04:05:50.140Z,5.53
2019-01-23T04:08:19.538Z,5.25
2019-01-23T04:10:48.937Z,5.87
2019-01-23T04:13:18.312Z,5.53
2019-01-23T04:15:47.666Z,9.10
2019-01-23T04:18:17.027Z,5.30
2019-01-23T04:20:46.377Z,6.83
2019-01-23T04:23:15.736Z,11.10
2019-01-23T04:25:48.387Z,8.05
2019-01-23T04:28:17.764Z,5.60
2019-01-23T04:30:47.114Z,6.30
2019-01-23T04:33:16.490Z,16.73
2019-01-23T04:35:45.840Z,5.58
2019-01-23T04:38:15.219Z,8.08
2019-01-23T04:40:44.587Z,13.47
2019-01-23T04:43:13.945Z,6.05
2019-01-23T04:45:43.308Z,9.40
2019-01-23T04:48:12.724Z,8.05
2019-01-23T04:50:59.788Z,6.28
2019-01-23T04:53:35.893Z,4.33
2019-01-23T04:56:05.447Z,7.83
2019-01-23T04:58:34.844Z,4.83
2019-01-23T05:01:04.283Z,9.23
2019-01-23T05:03:33.656Z,8.18
2019-01-23T05:06:03.123Z,6.70
2019-01-23T05:08:32.474Z,10.73
2019-01-23T05:11:01.829Z,4.90
2019-01-23T05:13:31.201Z,6.47
2019-01-23T05:16:00.574Z,12.60
2019-01-23T05:18:29.943Z,5.60
2019-01-23T05:20:59.294Z,8.28
2019-01-23T05:23:28.725Z,7.63
2019-01-23T05:25:58.064Z,5.30
2019-01-23T05:28:30.524Z,5.87
2019-01-23T05:30:59.889Z,6.95
2019-01-23T05:33:29.284Z,11.68
2019-01-23T05:35:58.619Z,3.50
2019-01-23T05:38:27.967Z,7.42
2019-01-23T05:41:07.358Z,6.63
2019-01-23T05:43:36.705Z,7.05
2019-01-23T05:46:06.099Z,6.83
2019-01-23T05:48:35.502Z,9.15
2019-01-23T05:51:04.847Z,10.50
2019-01-23T05:53:34.235Z,10.50
2019-01-23T05:56:03.592Z,6.70
2019-01-23T05:58:32.949Z,4.30
2019-01-23T06:01:02.326Z,7.50
2019-01-23T06:03:32.243Z,10.18
2019-01-23T06:06:01.641Z,12.78
2019-01-23T06:08:30.990Z,4.62
2019-01-23T06:11:00.370Z,9.08
2019-01-23T06:13:29.793Z,6.97
2019-01-23T06:15:59.198Z,11.10
2019-01-23T06:18:28.576Z,6.83
2019-01-23T06:20:57.935Z,4.80
2019-01-23T06:23:27.298Z,4.87
2019-01-23T06:25:56.719Z,10.55
2019-01-23T06:28:26.050Z,7.35
2019-01-23T06:30:55.430Z,2.87
2019-01-23T06:33:24.793Z,7.90
2019-01-23T06:35:54.186Z,7.15
2019-01-23T06:38:23.557Z,11.57
2019-01-23T06:40:52.932Z,10.55
2019-01-23T06:43:22.370Z,9.88
2019-01-23T06:45:51.751Z,11.48
2019-01-23T06:48:21.135Z,11.23
2019-01-23T06:50:50.530Z,6.10
2019-01-23T06:53:19.871Z,7.10
2019-01-23T06:55:49.256Z,4.40
2019-01-23T06:58:18.691Z,5.80
2019-01-23T07:00:48.075Z,7.05
2019-01-23T07:03:17.670Z,5.50
2019-01-23T07:05:47.029Z,12.33
2019-01-23T07:08:16.392Z,12.70
2019-01-23T07:10:45.764Z,6.67
2019-01-23T07:13:15.123Z,10.47
2019-01-23T07:15:44.501Z,6.37
2019-01-23T07:18:13.896Z,4.87
2019-01-23T07:20:43.265Z,4.83
2019-01-23T07:23:12.649Z,3.92
2019-01-23T07:25:42.011Z,5.97
2019-01-23T07:28:11.382Z,8.40
2019-01-23T07:30:42.262Z,5.92
2019-01-23T07:33:11.648Z,4.28
2019-01-23T07:35:41.012Z,7.00
2019-01-23T07:38:10.354Z,5.58
2019-01-23T07:40:39.720Z,5.40
2019-01-23T07:43:10.116Z,8.48
2019-01-23T07:45:39.473Z,6.12
2019-01-23T07:48:08.822Z,6.92
2019-01-23T07:50:38.396Z,3.40
2019-01-23T07:53:07.849Z,6.87
2019-01-23T07:55:37.187Z,6.20
2019-01-23T07:58:06.592Z,4.00
2019-01-23T08:00:35.978Z,6.92
2019-01-23T08:03:06.006Z,3.25
2019-01-23T08:05:35.351Z,6.72
2019-01-23T08:08:05.040Z,3.92
2019-01-23T08:10:34.388Z,6.90
2019-01-23T08:13:03.766Z,7.83
2019-01-23T08:15:35.258Z,5.53
2019-01-23T08:18:05.113Z,6.40
2019-01-23T08:20:34.499Z,8.75
2019-01-23T08:23:04.129Z,5.47
2019-01-23T08:25:33.549Z,6.90
2019-01-23T08:28:03.004Z,10.53
2019-01-23T08:30:38.614Z,6.28
2019-01-23T08:33:03.596Z,7.15
2019-01-23T08:35:33.028Z,4.67
2019-01-23T08:38:02.376Z,4.65
2019-01-23T08:40:31.777Z,6.83
2019-01-23T08:43:01.165Z,3.02
2019-01-23T08:45:30.519Z,5.42
2019-01-23T08:47:59.876Z,7.83
2019-01-23T08:50:40.516Z,7.08
2019-01-23T08:53:09.873Z,9.90
2019-01-23T08:55:39.284Z,14.87
2019-01-23T08:58:08.709Z,9.13
2019-01-23T09:00:38.050Z,7.58
2019-01-23T09:03:07.697Z,3.50
2019-01-23T09:05:37.048Z,5.15
2019-01-23T09:08:07.284Z,5.60
2019-01-23T09:10:36.731Z,2.72
2019-01-23T09:13:06.142Z,5.75
2019-01-23T09:15:35.518Z,6.33
2019-01-23T09:18:07.073Z,3.73
2019-01-23T09:20:36.578Z,5.73
2019-01-23T09:23:05.998Z,8.38
2019-01-23T09:25:35.362Z,7.20
2019-01-23T09:28:04.923Z,7.03
2019-01-23T09:30:43.600Z,5.23
2019-01-23T09:33:41.917Z,8.88
2019-01-23T09:36:54.731Z,2.47
2019-01-23T09:40:03.526Z,9.38
2019-01-23T09:43:12.441Z,2.63
2019-01-23T09:46:29.035Z,3.23
2019-01-23T09:49:42.082Z,2.10
2019-01-23T09:53:00.044Z,5.97
2019-01-23T09:55:29.410Z,5.37
2019-01-23T09:58:05.410Z,4.23
2019-01-23T10:00:34.763Z,6.80
2019-01-23T10:03:04.233Z,7.30
2019-01-23T10:05:33.576Z,7.03
2019-01-23T10:08:02.965Z,4.95
2019-01-23T10:10:32.307Z,8.57
2019-01-23T10:13:01.668Z,5.30
2019-01-23T10:15:38.404Z,9.23
2019-01-23T10:18:07.769Z,5.53
2019-01-23T10:20:37.118Z,6.17
2019-01-23T10:23:06.469Z,9.97
2019-01-23T10:25:35.812Z,2.97
2019-01-23T10:28:05.188Z,9.90
2019-01-23T10:30:34.532Z,5.63
2019-01-23T10:33:03.893Z,5.83
2019-01-23T10:35:33.257Z,9.40
2019-01-23T10:38:02.618Z,8.73
2019-01-23T10:40:31.993Z,5.33
2019-01-23T10:43:01.412Z,8.23
2019-01-23T10:45:30.907Z,6.97
2019-01-23T10:48:00.254Z,6.77
2019-01-23T10:50:29.638Z,4.37
2019-01-23T10:52:58.994Z,6.97
2019-01-23T10:55:28.390Z,7.50
2019-01-23T10:57:57.729Z,4.53
2019-01-23T11:00:29.293Z,7.33
2019-01-23T11:02:58.899Z,6.27
2019-01-23T11:05:28.379Z,11.00
2019-01-23T11:07:57.717Z,3.67
2019-01-23T11:10:27.066Z,10.70
2019-01-23T11:12:56.434Z,9.20
2019-01-23T11:15:25.991Z,8.90
2019-01-23T11:17:55.364Z,4.23
2019-01-23T11:20:24.730Z,4.97
2019-01-23T11:22:54.108Z,2.87
2019-01-23T11:25:23.454Z,6.27
2019-01-23T11:27:52.833Z,4.30
2019-01-23T11:30:24.240Z,8.53
2019-01-23T11:32:53.718Z,5.33
2019-01-23T11:35:23.186Z,4.97
2019-01-23T11:37:52.770Z,5.67
2019-01-23T11:40:24.660Z,4.03
2019-01-23T11:42:54.001Z,5.33
2019-01-23T11:45:23.466Z,3.97
2019-01-23T11:47:52.828Z,4.93
2019-01-23T11:50:23.234Z,4.40
2019-01-23T11:52:53.327Z,2.40
2019-01-23T11:55:22.702Z,3.80
2019-01-23T11:57:52.336Z,4.57
2019-01-23T12:00:23.110Z,8.10
2019-01-23T12:02:52.678Z,4.53
2019-01-23T12:05:22.842Z,11.43
2019-01-23T12:07:52.440Z,5.13
2019-01-23T12:10:23.034Z,12.30
2019-01-23T12:12:52.899Z,7.10
2019-01-23T12:15:23.564Z,2.73
2019-01-23T12:17:53.058Z,6.47
2019-01-23T12:20:23.169Z,1.83
2019-01-23T12:22:52.819Z,10.17
2019-01-23T12:25:22.184Z,7.67
2019-01-23T12:27:51.553Z,6.13
2019-01-23T12:30:26.338Z,7.57
2019-01-23T12:32:56.070Z,6.00
2019-01-23T12:35:25.506Z,4.43
2019-01-23T12:37:54.887Z,6.30
2019-01-23T12:40:24.231Z,10.70
2019-01-23T12:42:53.599Z,5.97
2019-01-23T12:45:25.085Z,7.47
2019-01-23T12:47:54.465Z,10.47
2019-01-23T12:50:26.390Z,6.30
2019-01-23T12:52:55.771Z,7.27
2019-01-23T12:55:25.210Z,5.20
2019-01-23T12:57:54.577Z,7.47
2019-01-23T13:00:28.722Z,7.13
2019-01-23T13:02:58.326Z,7.40
2019-01-23T13:05:27.879Z,6.73
2019-01-23T13:07:57.242Z,10.27
2019-01-23T13:10:26.877Z,5.13
2019-01-23T13:12:57.080Z,8.27
2019-01-23T13:15:27.218Z,5.07
2019-01-23T13:17:56.984Z,10.60
2019-01-23T13:20:26.670Z,7.57
2019-01-23T13:22:56.035Z,5.30
2019-01-23T13:25:26.823Z,10.80
2019-01-23T13:27:57.285Z,14.57
2019-01-23T13:30:27.207Z,9.40
2019-01-23T13:32:56.815Z,12.83
2019-01-23T13:35:28.756Z,8.63
2019-01-23T13:37:58.128Z,7.47
2019-01-23T13:40:33.272Z,10.10
2019-01-23T13:43:02.782Z,8.20
2019-01-23T13:45:32.124Z,7.87
2019-01-23T13:48:01.687Z,6.57
2019-01-23T13:50:31.045Z,8.70
2019-01-23T13:53:00.478Z,13.90
2019-01-23T13:55:29.823Z,8.77
2019-01-23T13:57:59.180Z,7.23
2019-01-23T14:00:34.547Z,18.30
2019-01-23T14:03:04.137Z,7.30
2019-01-23T14:05:33.481Z,6.97
2019-01-23T14:08:02.928Z,7.20
2019-01-23T14:10:32.300Z,9.47
2019-01-23T14:13:01.637Z,9.43
2019-01-23T14:15:33.080Z,10.83
2019-01-23T14:18:02.414Z,12.47
2019-01-23T14:20:31.809Z,9.63
2019-01-23T14:23:01.169Z,18.10
2019-01-23T14:25:30.524Z,12.67
2019-01-23T14:27:59.899Z,8.00
2019-01-23T14:30:34.714Z,3.57
2019-01-23T14:33:04.095Z,6.00
2019-01-23T14:35:34.382Z,4.87
2019-01-23T14:38:03.948Z,4.17
2019-01-23T14:40:33.313Z,9.03
2019-01-23T14:43:03.010Z,5.70
2019-01-23T14:45:32.378Z,7.60
2019-01-23T14:48:01.774Z,9.37
2019-01-23T14:50:31.346Z,9.07
2019-01-23T14:53:01.001Z,5.10
2019-01-23T14:55:30.606Z,5.47
2019-01-23T14:58:00.501Z,8.63
2019-01-23T15:00:30.086Z,7.50
2019-01-23T15:02:59.434Z,11.63
2019-01-23T15:05:29.124Z,10.43
2019-01-23T15:07:58.609Z,16.93
2019-01-23T15:10:29.944Z,7.10
2019-01-23T15:12:59.927Z,8.17
2019-01-23T15:15:29.469Z,10.13
2019-01-23T15:17:59.151Z,12.63
2019-01-23T15:20:36.810Z,9.60
2019-01-23T15:23:06.296Z,13.33
2019-01-23T15:25:35.877Z,18.93
2019-01-23T15:28:05.853Z,15.53
2019-01-23T15:30:35.315Z,10.47
2019-01-23T15:33:04.893Z,13.00
2019-01-23T15:35:34.574Z,7.77
2019-01-23T15:38:03.943Z,14.97
2019-01-23T15:40:36.081Z,4.70
2019-01-23T15:43:05.544Z,14.27
2019-01-23T15:45:34.988Z,5.43
2019-01-23T15:48:04.448Z,9.63
2019-01-23T15:50:33.833Z,8.03
2019-01-23T15:53:03.192Z,7.53
2019-01-23T15:55:32.828Z,7.37
2019-01-23T15:58:02.174Z,7.80
2019-01-23T16:00:32.782Z,10.37
2019-01-23T16:03:02.147Z,8.63
2019-01-23T16:05:31.498Z,10.43
2019-01-23T16:08:00.887Z,9.67
2019-01-23T16:10:30.667Z,5.37
2019-01-23T16:13:00.020Z,7.63
2019-01-23T16:15:30.284Z,14.67
2019-01-23T16:17:59.689Z,9.70
2019-01-23T16:20:29.190Z,13.90
2019-01-23T16:22:58.569Z,11.57
2019-01-23T16:25:27.997Z,16.93
2019-01-23T16:27:57.374Z,8.03
2019-01-23T16:30:29.715Z,12.80
2019-01-23T16:32:59.182Z,9.70
2019-01-23T16:35:28.620Z,11.67
2019-01-23T16:37:58.010Z,5.63
2019-01-23T16:40:27.475Z,9.00
2019-01-23T16:42:56.867Z,9.03
2019-01-23T16:45:26.576Z,11.17
2019-01-23T16:47:55.945Z,10.37
2019-01-23T16:50:26.111Z,12.27
2019-01-23T16:52:55.648Z,8.87
2019-01-23T16:55:25.503Z,14.03
2019-01-23T16:57:55.182Z,21.63
2019-01-23T17:00:25.355Z,15.43
2019-01-23T17:02:54.943Z,19.83
2019-01-23T17:05:26.822Z,15.60
2019-01-23T17:07:57.397Z,14.63
2019-01-23T17:10:27.350Z,22.20
2019-01-23T17:12:56.743Z,15.83
2019-01-23T17:15:26.278Z,14.97
2019-01-23T17:17:55.882Z,22.10
2019-01-23T17:20:31.936Z,18.07
2019-01-23T17:23:01.309Z,20.47
2019-01-23T17:25:30.876Z,14.23
2019-01-23T17:28:00.407Z,14.40
2019-01-23T17:30:29.907Z,11.47
2019-01-23T17:32:59.252Z,16.03
2019-01-23T17:35:28.630Z,13.90
2019-01-23T17:37:58.025Z,14.37
2019-01-23T17:40:27.407Z,14.20
2019-01-23T17:42:56.896Z,13.27
2019-01-23T17:45:28.423Z,13.40
2019-01-23T17:47:57.785Z,11.30
2019-01-23T17:50:27.181Z,13.90
2019-01-23T17:52:56.803Z,16.97
2019-01-23T17:55:28.582Z,9.83
2019-01-23T17:57:58.372Z,10.53
2019-01-23T18:00:29.503Z,12.80
2019-01-23T18:02:58.878Z,13.00
2019-01-23T18:05:28.254Z,6.57
2019-01-23T18:07:57.608Z,10.43
2019-01-23T18:10:28.340Z,9.73
2019-01-23T18:12:57.923Z,10.30
2019-01-23T18:15:27.570Z,9.23
2019-01-23T18:17:58.001Z,11.63
2019-01-23T18:20:28.826Z,11.30
2019-01-23T18:22:58.507Z,13.63
2019-01-23T18:25:27.861Z,17.63
2019-01-23T18:27:57.267Z,14.80
2019-01-23T18:30:30.048Z,20.63
2019-01-23T18:33:00.536Z,12.40
2019-01-23T18:35:51.562Z,20.67
2019-01-23T18:38:53.806Z,17.73
2019-01-23T18:42:28.377Z,13.80
2019-01-23T18:45:25.331Z,19.83
2019-01-23T18:48:47.309Z,17.07
2019-01-23T18:51:27.053Z,15.43
2019-01-23T18:53:56.461Z,15.27
2019-01-23T18:56:25.845Z,19.47
2019-01-23T18:58:55.587Z,14.07
2019-01-23T19:01:24.963Z,16.80
2019-01-23T19:03:54.358Z,12.63
2019-01-23T19:06:23.686Z,12.10
2019-01-23T19:08:53.085Z,13.17
2019-01-23T19:11:22.455Z,13.57
2019-01-23T19:13:51.882Z,13.97
2019-01-23T19:16:21.273Z,12.33
2019-01-23T19:18:50.645Z,14.20
2019-01-23T19:21:20.038Z,14.50
2019-01-23T19:23:49.451Z,17.63
2019-01-23T19:26:18.898Z,22.87
2019-01-23T19:28:48.284Z,22.77
2019-01-23T19:31:17.733Z,23.43
2019-01-23T19:33:48.229Z,20.60
2019-01-23T19:36:18.014Z,23.33
2019-01-23T19:38:47.434Z,27.73
2019-01-23T19:41:20.385Z,21.23
2019-01-23T19:43:47.898Z,12.13
2019-01-23T19:46:17.389Z,14.05
2019-01-23T19:48:46.959Z,10.10
2019-01-23T19:51:16.470Z,13.53
2019-01-23T19:53:45.927Z,19.73
2019-01-23T19:56:15.387Z,16.90
2019-01-23T19:58:44.750Z,24.83
2019-01-23T20:01:14.168Z,21.60
2019-01-23T20:03:43.564Z,20.83
2019-01-23T20:06:12.935Z,19.17
2019-01-23T20:08:42.632Z,33.00
2019-01-23T20:11:12.447Z,27.70
2019-01-23T20:13:41.920Z,23.93
2019-01-23T20:16:11.300Z,22.63
2019-01-23T20:18:40.717Z,25.33
2019-01-23T20:21:10.120Z,19.43
2019-01-23T20:23:39.489Z,17.70
2019-01-23T20:26:08.907Z,16.87
2019-01-23T20:28:38.560Z,22.30
2019-01-23T20:31:09.962Z,21.60
2019-01-23T20:33:39.355Z,23.00
2019-01-23T20:36:08.744Z,24.23
2019-01-23T20:38:38.220Z,28.57
2019-01-23T20:41:08.651Z,26.47
2019-01-23T20:43:38.116Z,31.80
2019-01-23T20:46:07.723Z,21.83
2019-01-23T20:48:37.134Z,22.27
2019-01-23T20:51:06.560Z,18.52
2019-01-23T20:53:35.996Z,18.83
2019-01-23T20:56:05.907Z,17.97
2019-01-23T20:58:35.320Z,19.20
2019-01-23T21:01:05.006Z,15.58
2019-01-23T21:03:35.140Z,18.07
2019-01-23T21:06:04.856Z,17.37
2019-01-23T21:08:34.279Z,23.80
2019-01-23T21:11:03.707Z,21.33
2019-01-23T21:13:33.072Z,31.80
2019-01-23T21:16:02.822Z,19.63
2019-01-23T21:18:32.250Z,13.73
2019-01-23T21:21:01.756Z,7.77
2019-01-23T21:23:31.119Z,9.13
2019-01-23T21:26:00.583Z,8.38
2019-01-23T21:28:29.997Z,18.17
2019-01-23T21:30:59.483Z,9.93
2019-01-23T21:33:28.844Z,11.37
2019-01-23T21:35:58.236Z,14.17
2019-01-23T21:38:27.699Z,20.73
2019-01-23T21:40:57.524Z,17.43
2019-01-23T21:43:26.939Z,17.15
2019-01-23T21:45:56.366Z,17.10
2019-01-23T21:48:25.915Z,13.72
2019-01-23T21:50:55.406Z,15.13
2019-01-23T21:53:24.836Z,18.50
2019-01-23T21:55:54.216Z,16.37
2019-01-23T21:58:23.555Z,13.03
2019-01-23T22:00:56.297Z,15.57
2019-01-23T22:03:25.723Z,13.33
2019-01-23T22:05:55.057Z,12.43
2019-01-23T22:08:24.432Z,10.73
2019-01-23T22:10:53.814Z,15.57
2019-01-23T22:13:23.164Z,11.67
2019-01-23T22:15:52.537Z,11.07
2019-01-23T22:18:21.904Z,12.30
2019-01-23T22:20:51.244Z,10.47
2019-01-23T22:23:20.622Z,15.77
2019-01-23T22:25:50.011Z,17.67
2019-01-23T22:28:19.402Z,14.23
2019-01-23T22:30:48.751Z,14.30
2019-01-23T22:33:18.124Z,12.97
2019-01-23T22:35:47.502Z,16.70
2019-01-23T22:38:16.864Z,15.38
2019-01-23T22:40:46.226Z,12.15
2019-01-23T22:43:15.585Z,14.93
2019-01-23T22:45:44.950Z,12.53
2019-01-23T22:48:14.324Z,12.70
2019-01-23T22:50:43.670Z,12.73
2019-01-23T22:53:13.840Z,16.30
2019-01-23T22:55:43.153Z,13.37
2019-01-23T22:58:15.607Z,15.27
2019-01-23T23:01:26.118Z,10.70
2019-01-23T23:03:55.653Z,20.97
2019-01-23T23:06:30.465Z,16.23
2019-01-23T23:08:59.861Z,14.45
2019-01-23T23:11:29.219Z,12.33
2019-01-23T23:13:58.574Z,16.37
2019-01-23T23:16:27.930Z,14.77
2019-01-23T23:18:57.329Z,15.47
2019-01-23T23:21:26.800Z,11.67
2019-01-23T23:23:56.186Z,12.30
2019-01-23T23:26:25.615Z,12.00
2019-01-23T23:28:55.006Z,12.30
2019-01-23T23:31:24.380Z,11.13
2019-01-23T23:33:53.764Z,16.33
2019-01-23T23:36:23.085Z,16.07
2019-01-23T23:38:52.460Z,16.10
2019-01-23T23:41:21.830Z,15.67
2019-01-23T23:43:51.182Z,16.27
2019-01-23T23:46:20.549Z,11.83
2019-01-23T23:48:49.900Z,13.00
2019-01-23T23:51:19.266Z,12.93
2019-01-23T23:53:48.596Z,14.17
2019-01-23T23:56:17.978Z,11.87
2019-01-23T23:58:47.339Z,14.67
